Senhora do Porto, Brazil
Current Conditions -  °F | °C
As of 6:00 AM on Saturday 01 Nov 2014 (Local Time) from SBLS Reporting Station
Few Clouds Few Clouds  
Wind Chill: 66°   Ceiling: Unl
Heat Index: 66°   Visibility: 6mi
Dew Point: 63°   Wind: 7mph
Humidity: 88%   Direction: 130°SE
Pressure: 30.12"   Gusts: NA
Location:  18.89°S, 43.08°W
Report Text: SBLS 010800Z 13006KT 9999 FEW030 19/17 Q1020
Loading
Personal Weather Stations






























Interactive Weather Map
Tropical Storm Tracking
New forecast layout! Learn more

10-Day Weather Forecast

Advertisements
Track Severe Weather on mobile